臺北終端管制區 - 桃園掃描雷達席

METAR RCTP 011730Z 05020KT 9999 FEW006 BKN008 BKN018 18/17 Q1020 NOSIG RMK A3013(C)=

站台狀態:Offline
最後更新:2022-12-02 01:30:02